24h Messdaten per 21.07.2018 um 05:50:02

Datum Zeit Luftdruck Temp Balkon Feuchte Balkon Temp Strasse Feuchte Strasse Wind km/h Wind Boe Wind aus (Grad) Regen l/15min Licht Lux Sonne h/Monat
21.07.18 05:50:02 1003 15.0 30 18.9 55 262 25.06
21.07.18 05:45:02 1003 15.1 29 18.9 55
21.07.18 05:40:02 1003 15.4 27 18.9 54 178 25.06
21.07.18 05:35:02 1003 15.7 24 18.9 54 115 25.06
21.07.18 05:30:02 1003 15.8 23 68 25.06
21.07.18 05:25:02 1003 15.8 24 18.8 55 37 25.06
21.07.18 05:20:02 1003 15.5 28 18.8 56 0 25.06
21.07.18 05:15:02 1003 15.3 30 18.9 55 0 25.06
21.07.18 05:10:02 1003 15.5 28 18.9 55 0 25.06
21.07.18 05:05:02 1003 15.7 27 19.0 55 0 25.06
21.07.18 05:00:02 1003 15.5 29 19.0 55 0 25.06
21.07.18 04:55:02 15.6 28 0 25.06
21.07.18 04:50:03 1003 15.6 28 19.0 56 0.0 0 25.06
21.07.18 04:45:02 1003 15.6 28 18.9 56 0.0 0 25.06
21.07.18 04:40:02 1003 15.5 29 19.0 56 0.0 0 25.06
21.07.18 04:35:02 1003 15.7 28 19.1 55 0 25.06
21.07.18 04:30:02 1003 15.6 28 19.0 55 0.0 0 25.06
21.07.18 04:25:02 1003 15.6 29 19.0 55 0.0 0 25.06
21.07.18 04:20:02 1003 15.5 29 19.1 55 0.0 0 25.06
21.07.18 04:15:02 1003 19.1 55 0.0 0 25.06
21.07.18 04:10:02 1003 15.4 29 19.1 55 0.0 0 25.06
21.07.18 04:05:02 1003 15.6 26 19.2 53 0.0
21.07.18 04:00:02 1003 15.9 22 19.1 44 0.0 0 25.06
21.07.18 03:55:02 1003 15.8 26 19.1 54 0.7 2.2 112.5 0 25.06
21.07.18 03:50:08 1003 15.7 28 19.1 55 0.7 2.2 112.5 0.0 0 25.06
21.07.18 03:45:08 1003 15.4 31 19.1 56 0.7 0.0 112.5 0.0 0 25.06
21.07.18 03:40:08 1003 15.5 31 19.3 56 1.1 2.2 90 0.0 0 25.06
21.07.18 03:35:02 1003 15.5 32 19.3 56 1.8 2.2 112.5 0 25.06
21.07.18 03:30:02 1003 15.5 31 19.4 56 2.5 2.9 67.5 0.0 0 25.06
21.07.18 03:25:02 1003 15.5 32 19.4 56 2.5 2.9 67.5 0.0 0 25.06
21.07.18 03:20:03 1003 15.5 32 19.4 56 2.5 2.5 67.5 0.0 0 25.06
21.07.18 03:15:03 1003 15.3 33 19.4 57 2.5 3.2 112.5 0.0 0 25.06
21.07.18 03:10:02 1003 15.3 34 19.5 56 2.5 3.6 112.5 0 25.06
21.07.18 03:05:02 1003 15.3 35 19.7 56 2.5 3.6 135 0.0 0 25.06
21.07.18 03:00:02 1003 15.5 33 1.4 1.8 90 0.0 0 25.06
21.07.18 02:55:02 1003 15.6 33 19.7 56 1.4 1.8 90 0.0 0 25.06
21.07.18 02:50:01 1004 15.7 32 19.6 57 2.2 0.0 112.5 0.0 0 25.06
21.07.18 02:45:01 1004 15.8 31 19.6 56 1.4 4.0 112.5 0.0 0 25.06
21.07.18 02:40:01 1003 15.8 31 19.6 56 1.4 4.0 112.5 0.0 0 25.06
21.07.18 02:35:00 1003 15.5 31 19.6 55 0.7 0.0 112.5 0.0 0 25.06
21.07.18 02:30:00 1003 15.4 32 19.7 55 1.4 4.3 112.5 0.0 0 25.06
21.07.18 02:25:00 1004 15.3 33 19.7 55 1.4 4.3 112.5 0.0 0 25.06
21.07.18 02:20:01 1004 15.6 30 19.8 54 1.1 2.2 112.5 0.0 0 25.06
21.07.18 02:15:01 1004 15.5 30 20.0 53 2.2 2.2 112.5 0.0 0 25.06
21.07.18 02:10:01 1004 15.7 30 20.2 53 2.2 2.2 112.5 0.0 0 25.06
21.07.18 02:05:01 1004 16.0 28 20.2 53 2.2 3.2 112.5 0.0 0 25.06
21.07.18 02:00:01 1003 16.2 27 20.4 51 2.5 2.9 202.5 0.0 0 25.06
21.07.18 01:55:01 1003 16.3 27 20.5 53 2.5 2.9 202.5 0.0 0 25.06
21.07.18 01:50:00 1003 16.0 31 20.6 53 2.5 2.9 67.5 0.0 0 25.06
21.07.18 01:45:00 1004 16.1 28 20.7 53 1.4 2.9 112.5 0.0 0 25.06
21.07.18 01:40:00 1004 16.5 29 20.8 53 1.4 2.9 112.5 0.0 0 25.06
21.07.18 01:35:00 1004 16.6 29 20.9 52 1.1 2.5 90 0.0 0 25.06
21.07.18 01:30:00 1004 16.9 27 21.1 51 1.4 1.4 90 0.0 0 25.06
21.07.18 01:25:00 1004 17.0 25 21.1 51 1.4 1.4 90 0.0 0 25.06
21.07.18 01:20:00 1004 17.2 24 21.2 51 1.8 2.5 90 0.0 0 25.06
21.07.18 01:15:00 1004 17.4 24 21.3 52 0.7 2.5 112.5 0.0
21.07.18 01:10:00 1004 21.3 52 0.7 2.5 112.5 0.0 0 25.06
21.07.18 01:05:02 1004 17.5 24 21.3 53 1.4 2.2 67.5 0.0 0 25.06
21.07.18 01:00:01 1004 1.1 0.0 22.5 0.0 0 25.06
21.07.18 00:55:01 1004 17.6 26 21.5 52 1.4 0.0 112.5 0.0 0 25.06
21.07.18 00:50:01 1004 17.8 25 21.7 51 1.4 0.0 112.5 0.0 0 25.06
21.07.18 00:45:01 1004 18.0 22 21.8 51 1.4 2.5 90 0.0 0 25.06
21.07.18 00:40:01 1004 18.0 20 21.8 51 1.4 2.5 90 0.0 0 25.06
21.07.18 00:35:01 1004 18.2 20 21.9 51 1.1 2.2 22.5 0.0 0 25.06
21.07.18 00:30:01 1004 18.2 22 21.8 52 1.8 2.9 90 0.0 0 25.06
21.07.18 00:25:01 1004 18.3 21 21.9 52 1.8 2.9 90 0.0 0 25.06
21.07.18 00:20:01 1004 18.3 21 22.0 52 1.8 2.5 67.5 0.0 0 25.06
21.07.18 00:15:01 18.3 21 22.0 51 1.1 2.2 112.5 0.0 0 25.06
21.07.18 00:10:01 1004 18.3 20 22.0 52 1.1 2.2 112.5 0.0 0 25.06
21.07.18 00:05:01 1004 18.5 20 22.0 50 1.4 1.8 22.5 0.0 0 25.06
21.07.18 00:00:01 1004 18.5 20 22.1 50 1.4 2.2 112.5 0.0 0 25.06
20.07.18 23:55:01 1004 18.5 21 22.2 50 0.0 1.4 112.5 0.0 0 25.06
20.07.18 23:50:01 1004 18.4 21 22.3 50 0.0 1.4 112.5 0.0 0 25.06
20.07.18 23:45:01 1004 18.5 20 22.3 49 0.4 0.0 112.5 0.0 0 25.06
20.07.18 23:40:01 1004 18.5 20 22.3 49 0.4 0.0 112.5 0 25.06
20.07.18 23:35:01 1004 18.7 20 22.3 50 0.0 0.0 135 0.0
20.07.18 23:30:01 1004 18.6 20 22.2 51 0.0 1.8 112.5 0.0 0 25.06
20.07.18 23:25:01 1004 18.6 20 22.2 51 0.4 0.0 90 0.0 0 25.06
20.07.18 23:20:01 1004 18.6 20 22.3 52 0.4 0.0 90 0.0 0 25.06
20.07.18 23:15:01 1004 18.6 20 22.3 51 0.4 0.0 90 0.0 0 25.06
20.07.18 23:10:01 1004 18.6 22 22.4 52 0.4 0.0 90 0.0 0 25.06
20.07.18 23:05:01 1004 18.7 20 22.4 50 0.4 0.0 0 0.0 0 25.06
20.07.18 23:00:01 1004 18.8 20 22.4 50 0.4 0.0 112.5 0.0 0 25.06
20.07.18 22:55:01 1004 18.8 20 22.5 51 0.4 0.0 112.5 0.0 0 25.06
20.07.18 22:50:01 1004 18.9 20 22.7 51 0.4 0.0 67.5 0.0 0 25.06
20.07.18 22:45:01 1004 18.9 20 22.7 50 0.4 0.0 112.5 0.0 0 25.06
20.07.18 22:40:00 1004 18.9 20 22.7 49 0.4 0.0 112.5 0.0 0 25.06
20.07.18 22:35:00 1004 18.7 21 0.7 1.4 135 0.0 0 25.06
20.07.18 22:30:00 1004 18.7 23 22.8 50 0.7 0.0 135 0.0 0 25.06
20.07.18 22:25:00 1004 18.8 21 22.9 48 0.4 1.8 112.5 0.0 0 25.06
20.07.18 22:20:01 1004 18.8 20 23.0 47 0.4 1.8 112.5 0.0 3 25.06
20.07.18 22:15:01 1004 18.9 20 23.0 46 0.0 0.0 135 0.0 6 25.06
20.07.18 22:10:01 1004 18.9 20 23.1 46 0.0 0.0 135 0.0 10 25.06
20.07.18 22:05:01 1004 18.9 20 23.0 46 0.4 0.0 90 0.0 21 25.06
20.07.18 22:00:01 1004 19.0 20 23.0 48 0.0 0.0 90 0.0 29 25.06
20.07.18 21:55:01 1004 22.9 48 0.0 0.0 135 0.0 73 25.06
20.07.18 21:50:01 1004 18.5 26 23.0 51 0.0 0.0 135 0.0 98 25.06
20.07.18 21:45:01 1004 18.7 27 23.0 51 0.0 0.0 90 0.0 168 25.06
20.07.18 21:40:01 1004 23.0 51 0.0 0.0 90 0.0 264 25.06
20.07.18 21:35:01 1004 18.9 25 23.1 51 0.0 0.0 67.5 0.0 393 25.06
20.07.18 21:30:01 1004 19.0 25 23.2 50 0.0 0.0 67.5 0.0 531 25.06
20.07.18 21:25:01 1004 19.1 22 23.2 50 0.4 0.0 45 0.0 687 25.06
20.07.18 21:20:01 1004 19.1 25 23.4 50 0.4 0.0 45 0.0 895 25.06
20.07.18 21:15:01 1004 19.2 20 23.4 48 0.4 2.2 135 0.0 1140 25.06
20.07.18 21:10:01 1004 19.3 20 23.5 47 0.4 2.2 135 0.0 1370 25.06
20.07.18 21:05:01 1004 19.3 22 23.8 47 0.0 0.0 67.5 0.0 1460 25.06
20.07.18 21:00:01 1004 19.3 20 23.9 47 0.0 0.0 112.5 0.0 1650 25.06
20.07.18 20:55:01 1004 19.7 20 24.1 45 0.0 0.0 112.5 0.0 1870 25.06
20.07.18 20:50:01 1004 20.0 20 24.2 45 0.0 0.0 112.5 0.0 2190 25.06
20.07.18 20:45:01 20.1 20 24.3 45 0.0 0.0 90 0.0 2600 25.06
20.07.18 20:40:01 1004 20.3 20 24.3 45 0.0 0.0 90 0.0 2770 25.06
20.07.18 20:35:01 1004 20.5 20 24.3 43 0.0 1.8 112.5 0.0 2760 25.06
20.07.18 20:30:01 1004 20.6 20 24.4 43 0.0 0.0 90 0.0 2510 25.06
20.07.18 20:25:01 1004 20.6 20 24.4 44 0.0 0.0 67.5 0.0 2700 25.06
20.07.18 20:20:01 1004 20.6 20 24.3 45 0.0 0.0 67.5 0.0 3470 25.06
20.07.18 20:15:01 1004 20.3 20 24.2 49 0.0 0.0 67.5 0.0 3800 25.06
20.07.18 20:10:01 1004 20.3 20 24.3 49 0.0 0.0 67.5 0.0 5210 25.06
20.07.18 20:05:01 1004 20.4 20 24.4 49 0.4 0.0 67.5 0.0 6010 25.06
20.07.18 20:00:01 1004 20.3 20 24.5 48 0.4 0.0 112.5 0.0 6430 25.06
20.07.18 19:55:01 1004 20.5 20 24.5 48 0.4 0.0 22.5 0.0 7070 25.06
20.07.18 19:50:01 1004 20.5 20 0.4 0.0 22.5 0.0 9350 25.06
20.07.18 19:45:01 1004 20.4 20 24.5 50 1.1 0.0 67.5 0.0 10500 25.06
20.07.18 19:40:01 1004 20.5 20 24.5 51 1.1 0.0 67.5 0.0 10600 25.06
20.07.18 19:35:01 1004 20.3 24 24.4 52 1.1 1.8 90 0.0 14000 25.06
20.07.18 19:30:01 1004 19.9 25 24.4 52 1.4 1.8 67.5 0.0 14300 25.06
20.07.18 19:25:01 1004 24.4 52 2.2 3.2 67.5 11100 25.06
20.07.18 19:20:02 1004 19.3 30 24.5 54 2.2 3.2 67.5 0.0 8200 25.06
20.07.18 19:15:02 1004 19.0 31 24.7 50 1.8 2.9 90 0.0 6200 25.06
20.07.18 19:10:01 1004 18.5 33 24.7 50 1.8 2.9 90 0.0 5730 25.06
20.07.18 19:05:01 1004 18.4 34 24.9 48 1.4 2.9 135 0.0 6710 25.06
20.07.18 19:00:01 1005 18.3 33 25.4 46 1.8 3.2 90 0.0 8280 25.06
20.07.18 18:55:01 1005 18.6 29 26.0 42 1.8 3.2 90 0.0 8860 25.06
20.07.18 18:50:01 1005 18.8 28 26.3 40 1.4 2.9 112.5 0.0 8800 25.06
20.07.18 18:45:01 1005 19.2 20 26.8 35 1.4 0.0 90 0.0 7980 25.06
20.07.18 18:40:01 1005 20.4 20 27.3 30 1.4 0.0 90 0.0 7260 25.06
20.07.18 18:35:01 1005 21.3 20 27.9 24 1.8 4.0 67.5 0.0 6080 25.06
20.07.18 18:30:01 1005 23.3 20 28.0 20 2.2 1.8 112.5 0.0 4480 25.06
20.07.18 18:25:01 1004 24.3 20 28.1 20 2.2 1.8 112.5 3670 25.06
20.07.18 18:20:02 1004 24.6 20 28.2 20 2.5 1.8 135 0.0 3330 25.06
20.07.18 18:15:02 1004 25.7 20 28.2 20 1.8 2.9 135 0.0 3350 25.06
20.07.18 18:10:01 1004 26.0 20 28.3 20 1.8 2.9 135 0.0 3780 25.06
20.07.18 18:05:01 1004 26.4 20 28.5 20 2.5 2.5 112.5 0.0 3700 25.06
20.07.18 18:00:01 1004 26.4 20 28.6 20 2.5 4.0 135 0.0 5920 25.06
20.07.18 17:55:01 1004 27.6 20 28.6 20 2.9 4.7 135 0.0 8720 25.06
20.07.18 17:50:01 1004 27.8 20 28.6 20 2.9 4.7 135 0.0 16100 25.06
20.07.18 17:45:01 1004 27.8 20 28.9 20 2.2 1.4 180 0.0 20600 25.06
20.07.18 17:40:01 1004 28.5 20 28.9 20 2.2 1.4 180 0.0 23300 25.01
20.07.18 17:35:01 1004 29.8 20 29.0 20 2.5 3.2 135 0.0 23500 24.56
20.07.18 17:30:01 1004 29.8 20 29.0 20 1.1 6.5 135 0.0
20.07.18 17:25:01 1004 30.6 20 29.0 20 1.1 6.5 135 0.0 27500 24.48
20.07.18 17:20:01 1004 31.2 20 29.0 20 0.7 1.8 90 0.0 42900 24.40
20.07.18 17:15:01 1004 30.4 20 29.0 20 2.5 1.8 112.5 0.0 39300 24.37
20.07.18 17:10:01 29.2 20 29.0 20 2.5 1.8 112.5 0.0 36200 24.32
20.07.18 17:05:01 1004 30.2 20 29.1 20 2.5 7.2 67.5 0.0 22000 24.24
20.07.18 17:00:01 1004 30.5 20 29.1 20 2.2 2.5 112.5 0.0 21400 24.22
20.07.18 16:55:01 1004 33.1 20 29.1 20 2.2 2.5 112.5 32200 24.16
20.07.18 16:50:03 1004 35.7 20 29.3 20 3.2 4.7 135 0.0 52400 24.11
20.07.18 16:45:03 1004 32.8 20 29.3 20 4.7 6.5 112.5 0.0 55700 24.06
20.07.18 16:40:02 31.4 20 29.2 20 3.6 9.0 112.5 0.0 30300 24.01
20.07.18 16:35:02 32.6 20 29.4 20 1.1 6.8 135 33000 23.55
20.07.18 16:30:02 1004 35.5 20 29.5 20 1.8 0.0 67.5 0.0 54500 23.53
20.07.18 16:25:02 1004 34.5 20 29.5 20 1.8 0.0 67.5 0.0 71000 23.48
20.07.18 16:20:02 1005 29.5 20 1.4 2.9 67.5 0.0 70800 23.42
20.07.18 16:15:02 1005 29.3 20 1.4 4.3 112.5 0.0 74300 23.34
20.07.18 16:10:02 1005 29.2 20 1.4 4.3 112.5 0.0 75800 23.29
20.07.18 16:05:02 1005 34.0 20 29.1 20 1.8 0.0 22.5 0.0 64100 23.27
20.07.18 16:00:02 1005 34.7 20 29.1 20 1.8 2.5 135 0.0 61400 23.21
20.07.18 15:55:02 1005 33.4 20 29.1 20 1.8 2.5 135 0.0 43200 23.16
20.07.18 15:50:01 1005 35.6 20 29.1 20 2.2 0.0 315 0.0 88100 23.11
20.07.18 15:45:01 1005 35.3 20 29.1 20 1.4 0.0 112.5 0.0 69100 23.06
20.07.18 15:40:01 1005 34.0 20 28.9 20 1.4 0.0 112.5 82600 23.03
20.07.18 15:35:01 1005 31.7 20 28.7 20 1.1 2.2 45 0.0 52600 22.58
20.07.18 15:30:01 1005 33.1 20 29.0 20 0.7 2.2 45 0.0 57200 22.52
20.07.18 15:25:01 1005 33.4 20 29.3 20 1.4 1.8 135 0.0
20.07.18 15:20:01 1005 36.6 20 29.3 20 1.4 1.8 135 0.0 83000 22.42
20.07.18 15:15:01 1005 33.4 20 29.2 20 1.4 2.9 315 0.0 82500 22.37
20.07.18 15:10:01 1005 35.3 20 29.2 20 1.4 2.9 315 0.0 78200 22.31
20.07.18 15:05:02 1005 34.4 20 29.0 20 0.7 0.0 247.5 0.0 79200 22.24
20.07.18 15:00:02 1005 33.4 20 29.1 20 1.1 2.2 202.5 0.0 78300 22.21
20.07.18 14:55:02 1005 34.5 20 29.1 20 1.1 2.2 202.5 0.0 78500 22.16
20.07.18 14:50:01 1005 34.9 20 28.8 20 1.1 0.0 337.5 0.0 81000 22.10
20.07.18 14:45:01 1005 34.0 20 28.9 20 0.7 1.8 315 0.0 80100 22.08
20.07.18 14:40:01 1005 34.0 20 28.8 20 0.7 1.8 315 0.0 80300 22.00
20.07.18 14:35:01 1005 34.0 20 28.8 20 1.1 0.0 315 0.0 80900 21.57
20.07.18 14:30:01 1005 32.6 20 28.5 20 1.8 0.0 337.5 0.0 81900 21.52
20.07.18 14:25:01 1005 33.0 20 28.7 20 1.4 3.6 337.5 81400 21.47
20.07.18 14:20:02 1005 32.8 20 28.5 20 1.4 3.6 337.5 0.0 77800 21.42
20.07.18 14:15:02 1005 32.1 20 28.1 20 1.4 4.3 270 0.0 85500 21.36
20.07.18 14:10:02 1006 31.3 20 28.6 20 1.4 4.3 270 0.0 74200 21.31
20.07.18 14:05:01 1006 32.8 20 28.6 20 1.4 0.0 337.5 0.0 77300 21.26
20.07.18 14:00:01 1006 32.2 20 28.5 20 1.4 1.4 202.5 0.0 68700 21.21
20.07.18 13:55:01 1006 32.0 20 28.6 20 1.4 1.4 202.5 0.0 67100 21.15
20.07.18 13:50:02 1006 33.5 20 28.5 20 1.1 2.2 0 0.0 84600 21.13
20.07.18 13:45:02 1006 32.3 20 28.3 20 1.1 0.0 337.5 0.0 71500 21.07
20.07.18 13:40:02 1006 31.3 20 28.1 20 1.1 0.0 337.5 0.0 70500 21.02
20.07.18 13:35:01 1006 31.1 20 28.1 20 1.8 3.6 67.5 0.0 60200 20.57
20.07.18 13:30:01 1006 30.6 20 28.3 20 1.4 4.7 67.5 0.0 66000 20.52
20.07.18 13:25:01 1006 31.1 20 28.5 20 1.4 4.7 67.5 0.0 79100 20.46
20.07.18 13:20:01 1006 34.4 20 28.0 20 1.4 1.8 180 0.0 88300 20.41
20.07.18 13:15:01 1006 33.9 20 28.2 20 1.4 0.0 45 0.0 87700 20.36
20.07.18 13:10:01 1006 32.7 20 28.2 20 1.4 0.0 45 0.0 81200 20.28
20.07.18 13:05:01 1006 35.5 20 28.2 20 1.8 2.9 292.5 0.0 82600 20.25
20.07.18 13:00:01 1006 35.5 20 28.0 20 1.8 2.2 270 0.0 83100 20.23
20.07.18 12:55:01 1006 32.0 20 28.0 20 1.4 2.5 22.5 0.0 84400 20.18
20.07.18 12:50:01 1006 31.1 20 28.1 20 1.4 2.5 22.5 0.0 79100 20.12
20.07.18 12:45:01 1006 33.9 20 27.7 20 1.1 2.9 180 0.0 78800 20.04
20.07.18 12:40:01 1006 34.2 20 27.7 21 1.1 2.9 180 0.0 85900 20.02
20.07.18 12:35:02 1006 34.3 20 1.1 1.8 67.5 0.0 82200 19.57
20.07.18 12:30:02 1006 32.2 20 27.3 22 1.1 2.9 157.5 0.0 75800 19.51
20.07.18 12:25:02 1006 36.3 20 27.4 21 2.2 2.5 225 0.0 77800 19.46
20.07.18 12:20:01 1006 34.5 20 27.1 22 2.2 2.5 225 0.0 79400 19.41
20.07.18 12:15:01 1006 34.5 20 26.8 22 1.8 5.0 45 0.0 80600 19.36
20.07.18 12:10:01 1006 34.7 20 26.8 22 1.8 5.0 45 77700 19.30
20.07.18 12:05:02 1006 35.1 20 26.9 23 2.2 4.3 247.5 0.0 76300 19.28
20.07.18 12:00:02 1006 30.9 20 26.4 23 1.1 3.2 112.5 0.0 75400 19.22
20.07.18 11:55:02 1006 31.8 20 26.2 23 1.1 3.2 112.5 0.0 78200 19.17
20.07.18 11:50:01 1006 26.3 23 1.4 0.0 337.5 0.0 76100 19.12
20.07.18 11:45:01 1006 26.0 24 1.4 4.7 90 0.0 35900 19.07
20.07.18 11:40:01 1006 26.0 23 1.4 4.7 90 0.0 46300 19.01
20.07.18 11:35:02 1006 32.4 20 26.3 24 1.8 0.0 45 0.0 75800 18.56
20.07.18 11:30:02 1006 31.9 20 26.1 24 1.8 4.7 45 0.0 75000 18.51
20.07.18 11:25:02 1006 32.8 20 26.1 24 1.8 4.7 45 0.0 70000 18.46
20.07.18 11:20:02 1006 32.8 20 26.1 23 1.8 2.5 112.5 0.0 75200 18.40
20.07.18 11:15:02 1006 32.7 20 25.9 24 1.4 7.9 45 0.0 74000 18.38
20.07.18 11:10:02 1006 35.7 20 25.6 25 1.4 7.9 45 0.0 77800 18.33
20.07.18 11:05:02 1006 32.8 20 25.7 25 1.1 1.8 67.5 0.0 75800 18.27
20.07.18 11:00:02 1006 34.3 20 25.5 26 1.4 4.7 315 0.0 74500 18.22
20.07.18 10:55:02 1006 33.6 20 25.2 25 1.4 1.8 315 0.0 71800 18.17
20.07.18 10:50:01 1006 32.9 20 25.0 25 1.4 1.8 315 0.0 67400 18.12
20.07.18 10:45:01 1006 33.9 20 24.8 24 1.4 0.0 45 0.0 67400 18.06
20.07.18 10:40:01 1006 34.1 20 24.8 26 1.4 0.0 45 0.0 68000 18.01
20.07.18 10:35:01 1006 32.8 20 24.4 27 1.4 1.8 315 0.0 66400 17.56
20.07.18 10:30:01 1007 32.4 20 24.1 32 1.1 4.0 22.5 0.0 64700 17.51
20.07.18 10:25:01 1007 29.9 20 24.0 32 1.4 0.0 270 0.0 64500 17.48
20.07.18 10:20:02 1007 29.6 20 23.7 34 1.4 0.0 270 62700 17.43
20.07.18 10:15:02 1007 29.8 20 23.5 34 1.8 2.5 22.5 0.0
20.07.18 10:10:02 1007 33.2 20 23.4 35 1.8 2.5 22.5 0.0 57500 17.32
20.07.18 10:05:02 1007 33.1 20 23.1 36 1.8 2.5 22.5 0.0 58300 17.27
20.07.18 10:00:02 1007 29.3 20 23.0 37 1.4 2.2 22.5 0.0 56800 17.19
20.07.18 09:55:02 1007 32.1 20 22.8 37 1.4 2.2 22.5 0.0 55800 17.16
20.07.18 09:50:01 1007 31.0 20 22.7 37 1.4 3.6 247.5 0.0 55500 17.11
20.07.18 09:45:01 1007 31.0 20 22.6 38 2.2 1.8 22.5 0.0 53900 17.06
20.07.18 09:40:01 1007 29.2 20 22.5 40 2.2 1.8 22.5 0.0 52800 17.01
20.07.18 09:35:02 29.2 20 22.4 40 1.8 2.2 45
20.07.18 09:30:02 1007 30.7 20 22.3 40 1.1 3.6 22.5 0.0 50000 16.53
20.07.18 09:25:02 1007 31.2 20 22.2 40 1.1 3.6 22.5 0.0 47600 16.48
20.07.18 09:20:02 1007 30.1 20 21.9 41 1.1 1.8 157.5 44100 16.40
20.07.18 09:15:02 1007 26.8 20 21.7 42 1.1 3.2 202.5 0.0 44900 16.37
20.07.18 09:10:02 1007 25.3 20 21.6 42 1.1 3.2 202.5 0.0 43600 16.32
20.07.18 09:05:02 1007 25.5 20 21.5 43 1.1 2.5 67.5 0.0 42700 16.27
20.07.18 09:00:02 26.0 20 21.3 43 1.4 1.8 225 0.0 41000 16.21
20.07.18 08:55:02 1007 23.7 20 21.3 43 1.4 1.8 225 0.0 38300 16.16
20.07.18 08:50:01 1007 24.4 20 21.0 44 1.4 0.0 22.5 0.0 37900 16.11
20.07.18 08:45:01 1007 22.5 20 20.8 44 0.7 0.0 157.5 0.0 37400 16.06
20.07.18 08:40:01 1007 21.9 20 20.7 44 0.7 0.0 157.5 0.0 38200 16.03
20.07.18 08:35:02 1007 24.5 20 20.5 45 0.7 1.8 337.5 0.0 36500 15.58
20.07.18 08:30:02 1007 21.9 20 20.5 45 0.7 0.0 45 0.0 33900 15.52
20.07.18 08:25:02 1007 21.9 20 20.3 46 0.7 2.5 45 33500 15.45
20.07.18 08:20:02 1007 20.1 47 0.7 2.5 45 0.0 28500 15.39
20.07.18 08:15:02 1007 19.9 48 0.4 1.8 337.5 0.0 27600 15.37
20.07.18 08:10:02 1007 19.7 49 0.4 1.8 337.5 0.0 27300 15.31
20.07.18 08:05:02 1007 16.2 20 19.6 50 0.4 2.2 67.5 0.0 19200 15.29
20.07.18 08:00:02 1007 15.9 24 19.5 50 0.4 0.0 67.5 0.0 10300 15.29
20.07.18 07:55:02 1007 15.8 27 19.2 51 0.4 0.0 67.5 0.0 9830 15.29
20.07.18 07:50:02 1007 15.4 28 19.1 52 0.4 0.0 180 0.0 9600 15.29
20.07.18 07:45:02 1007 15.2 28 0.4 1.8 67.5 0.0 9520 15.29
20.07.18 07:40:02 1007 15.1 29 18.8 53 0.4 1.8 67.5 0.0 9180 15.29
20.07.18 07:35:02 1007 14.8 30 18.5 54 0.4 0.0 67.5 0.0 8930 15.29
20.07.18 07:30:02 1007 14.6 31 18.1 55 0.0 0.0 135 0.0 8600 15.29
20.07.18 07:25:02 1007 14.2 32 17.9 55 0.0 0.0 135 0.0 8030 15.29
20.07.18 07:20:02 1007 13.8 34 17.7 56 0.4 0.0 0 7460 15.29
20.07.18 07:15:02 1007 13.8 35 17.6 57 0.4 0.0 270 0.0 6810 15.29
20.07.18 07:10:02 1007 13.5 36 17.5 57 0.4 0.0 270 0.0 6410 15.29
20.07.18 07:05:02 1007 13.4 36 17.5 57 0.0 0.0 112.5 0.0 6220 15.29
20.07.18 07:00:02 1007 13.3 36 17.3 57 0.4 1.4 112.5 0.0 5700 15.29
20.07.18 06:55:02 1007 13.2 37 17.3 57 0.7 0.0 112.5 0.0 5430 15.29
20.07.18 06:50:02 1007 13.1 37 17.2 57 0.7 0.0 112.5 0.0 4200 15.29
20.07.18 06:45:02 1007 13.1 37 17.1 57 0.7 1.4 112.5 0.0 3650 15.29
20.07.18 06:40:02 1007 13.1 36 17.0 58 0.7 1.4 112.5 0.0 2930 15.29
20.07.18 06:35:02 1007 13.1 37 0.4 0.0 112.5 0.0 2430 15.29
20.07.18 06:30:02 1007 12.9 38 17.1 58 0.0 0.0 112.5 0.0 1830 15.29
20.07.18 06:25:02 1007 12.9 38 17.1 58 0.0 0.0 247.5 0.0 1650 15.29
20.07.18 06:20:01 1007 12.9 39 17.1 58 0.0 0.0 247.5 0.0 1620 15.29
20.07.18 06:15:01 1007 12.8 39 17.1 58 0.0 0.0 135 0.0 1620 15.29
20.07.18 06:10:01 1007 12.8 39 17.0 58 0.0 0.0 135 0.0 1590 15.29
20.07.18 06:05:02 1007 12.9 38 17.0 58 0.0 1.8 112.5 0.0 1300 15.29
20.07.18 06:00:02 1007 13.0 38 17.1 58 0.4 0.0 135 0.0 951 15.29
20.07.18 05:55:02 1007 13.1 37 17.2 57 0.4 0.0 90 0.0 639 15.29
20.07.18 05:50:02 1007 13.1 37 17.2 57 0.4 0.0 90 0.0 535 15.29
Index
© 2002-2012 Thomas Dreßler
Alle Rechte vorbehalten
letzte Scriptänderung 12.11.2012